Terminal Aerodrome Forecast
Issued by NWS Amarillo, TX

Current Version | Previous Version | Text Only | Print | Product List | Glossary Off
Versions: 1 2 3 4 5 6 7 8 9 10 11 12

000
FTUS44 KAMA 311700
TAFDHT
TAF
KDHT 311739Z 3118/0118 16010KT P6SM SCT250
     FM010600 19013G18KT P6SM SCT250
     FM011500 19016G30KT P6SM FEW100=

USA.gov is the U.S. government's official web portal to all federal, state and local government web resources and services.